createdAt,value
2023-04-22T00:00:54.769Z,0.00
2023-04-22T00:03:24.248Z,0.00
2023-04-22T00:05:50.883Z,0.00
2023-04-22T00:08:17.475Z,0.00
2023-04-22T00:10:43.898Z,0.00
2023-04-22T00:13:10.500Z,0.00
2023-04-22T00:15:37.196Z,0.00
2023-04-22T00:18:03.833Z,0.00
2023-04-22T00:20:32.400Z,0.00
2023-04-22T00:22:58.935Z,0.00
2023-04-22T00:25:25.319Z,0.00
2023-04-22T00:27:51.771Z,0.00
2023-04-22T00:30:18.229Z,0.00
2023-04-22T00:32:44.691Z,0.00
2023-04-22T00:35:11.155Z,0.00
2023-04-22T00:37:37.655Z,0.00
2023-04-22T00:40:04.577Z,0.00
2023-04-22T00:42:31.418Z,0.00
2023-04-22T00:44:58.570Z,0.00
2023-04-22T00:47:27.013Z,0.00
2023-04-22T00:49:54.584Z,0.00
2023-04-22T00:52:21.069Z,0.00
2023-04-22T00:54:49.553Z,0.00
2023-04-22T00:57:16.998Z,0.00
2023-04-22T00:59:44.291Z,0.00
2023-04-22T01:02:11.500Z,0.00
2023-04-22T01:04:39.109Z,0.00
2023-04-22T01:07:06.032Z,0.00
2023-04-22T01:09:33.099Z,0.00
2023-04-22T01:11:59.521Z,0.00
2023-04-22T01:14:25.966Z,0.00
2023-04-22T01:16:55.935Z,0.00
2023-04-22T01:19:23.757Z,0.00
2023-04-22T01:21:51.672Z,0.00
2023-04-22T01:24:18.914Z,0.00
2023-04-22T01:26:46.161Z,0.00
2023-04-22T01:29:13.658Z,0.00
2023-04-22T01:31:40.327Z,0.00
2023-04-22T01:34:07.096Z,0.00
2023-04-22T01:36:33.856Z,0.00
2023-04-22T01:39:00.524Z,0.00
2023-04-22T01:41:26.984Z,0.00
2023-04-22T01:43:54.461Z,0.00
2023-04-22T01:46:21.081Z,0.00
2023-04-22T01:48:51.261Z,0.00
2023-04-22T01:51:22.201Z,0.00
2023-04-22T01:53:48.820Z,0.00
2023-04-22T01:56:16.173Z,0.00
2023-04-22T01:58:43.239Z,0.00
2023-04-22T02:01:11.336Z,0.00
2023-04-22T02:03:37.974Z,0.00
2023-04-22T02:06:04.868Z,0.00
2023-04-22T02:08:31.454Z,0.00
2023-04-22T02:10:59.441Z,0.00
2023-04-22T02:13:25.914Z,0.00
2023-04-22T02:15:52.467Z,0.00
2023-04-22T02:18:19.508Z,0.00
2023-04-22T02:20:45.953Z,0.00
2023-04-22T02:23:12.607Z,0.00
2023-04-22T02:25:39.625Z,0.00
2023-04-22T02:28:06.060Z,0.00
2023-04-22T02:30:32.477Z,0.00
2023-04-22T02:32:58.914Z,0.00
2023-04-22T02:35:26.281Z,0.00
2023-04-22T02:37:52.714Z,0.00
2023-04-22T02:40:21.292Z,0.00
2023-04-22T02:42:48.606Z,0.00
2023-04-22T02:45:15.194Z,0.00
2023-04-22T02:47:43.272Z,0.00
2023-04-22T02:50:10.605Z,0.00
2023-04-22T02:52:37.049Z,0.00
2023-04-22T02:55:03.823Z,0.00
2023-04-22T02:57:30.525Z,0.00
2023-04-22T02:59:57.132Z,0.00
2023-04-22T03:02:24.409Z,0.00
2023-04-22T03:05:12.412Z,0.00
2023-04-22T03:07:38.949Z,0.00
2023-04-22T03:10:06.088Z,0.00
2023-04-22T03:12:33.439Z,0.00
2023-04-22T03:15:00.034Z,0.00
2023-04-22T03:17:29.946Z,0.00
2023-04-22T03:19:58.379Z,0.00
2023-04-22T03:22:24.857Z,0.00
2023-04-22T03:24:53.983Z,0.00
2023-04-22T03:27:20.879Z,0.00
2023-04-22T03:29:47.630Z,0.00
2023-04-22T03:32:14.201Z,0.00
2023-04-22T03:34:40.972Z,0.00
2023-04-22T03:37:09.497Z,0.00
2023-04-22T03:39:36.104Z,0.00
2023-04-22T03:42:02.684Z,0.00
2023-04-22T03:44:29.553Z,0.00
2023-04-22T03:46:55.983Z,0.00
2023-04-22T03:49:27.313Z,0.00
2023-04-22T03:51:54.843Z,0.00
2023-04-22T03:54:24.290Z,0.00
2023-04-22T03:56:52.405Z,0.00
2023-04-22T03:59:21.093Z,0.00
2023-04-22T04:01:48.085Z,0.00
2023-04-22T04:04:18.564Z,0.00
2023-04-22T04:06:51.197Z,0.00
2023-04-22T04:09:17.667Z,0.00
2023-04-22T04:11:45.740Z,0.00
2023-04-22T04:14:12.821Z,0.00
2023-04-22T04:16:46.016Z,0.00
2023-04-22T04:19:19.534Z,0.00
2023-04-22T04:21:46.010Z,0.00
2023-04-22T04:24:12.488Z,0.00
2023-04-22T04:26:44.042Z,0.00
2023-04-22T04:29:14.641Z,0.00
2023-04-22T04:31:46.191Z,0.00
2023-04-22T04:34:12.631Z,0.00
2023-04-22T04:36:39.778Z,0.00
2023-04-22T04:39:17.431Z,0.00
2023-04-22T04:41:44.957Z,0.00
2023-04-22T04:44:12.153Z,0.00
2023-04-22T04:46:39.647Z,0.00
2023-04-22T04:49:09.342Z,0.00
2023-04-22T04:51:43.179Z,0.00
2023-04-22T04:54:09.654Z,0.00
2023-04-22T04:56:39.180Z,0.00
2023-04-22T04:59:06.949Z,0.00
2023-04-22T05:01:34.206Z,0.00
2023-04-22T05:04:05.892Z,0.00
2023-04-22T05:06:33.725Z,0.00
2023-04-22T05:09:03.748Z,0.00
2023-04-22T05:11:30.243Z,0.00
2023-04-22T05:13:58.123Z,0.00
2023-04-22T05:16:29.994Z,0.00
2023-04-22T05:18:56.647Z,0.00
2023-04-22T05:21:23.662Z,0.00
2023-04-22T05:23:50.191Z,0.00
2023-04-22T05:26:16.849Z,0.00
2023-04-22T05:28:46.005Z,0.00
2023-04-22T05:31:12.448Z,0.00
2023-04-22T05:33:38.885Z,0.00
2023-04-22T05:36:06.137Z,0.00
2023-04-22T05:38:32.623Z,0.00
2023-04-22T05:41:00.140Z,0.00
2023-04-22T05:43:26.710Z,0.00
2023-04-22T05:45:59.895Z,0.00
2023-04-22T05:48:26.299Z,0.00
2023-04-22T05:51:02.459Z,0.00
2023-04-22T05:53:30.237Z,0.00
2023-04-22T05:55:59.222Z,0.00
2023-04-22T05:58:25.619Z,0.00
2023-04-22T06:00:54.249Z,0.00
2023-04-22T06:03:39.562Z,0.00
2023-04-22T06:06:06.575Z,0.00
2023-04-22T06:08:33.020Z,0.00
2023-04-22T06:10:59.458Z,0.00
2023-04-22T06:13:29.120Z,0.00
2023-04-22T06:15:55.719Z,0.00
2023-04-22T06:18:22.228Z,0.00
2023-04-22T06:20:48.899Z,0.00
2023-04-22T06:23:15.412Z,0.00
2023-04-22T06:25:41.892Z,0.00
2023-04-22T06:28:09.154Z,0.00
2023-04-22T06:30:36.573Z,0.00
2023-04-22T06:33:03.078Z,0.00
2023-04-22T06:35:29.587Z,0.00
2023-04-22T06:37:56.109Z,0.00
2023-04-22T06:40:26.989Z,0.00
2023-04-22T06:43:19.386Z,0.00
2023-04-22T06:46:05.882Z,0.00
2023-04-22T06:48:52.619Z,0.00
2023-04-22T06:51:50.967Z,0.00
2023-04-22T06:54:17.414Z,0.00
2023-04-22T06:56:43.897Z,0.00
2023-04-22T06:59:10.470Z,5.15
2023-04-22T07:01:37.294Z,10.46
2023-04-22T07:04:03.791Z,20.87
2023-04-22T07:06:30.590Z,30.95
2023-04-22T07:08:57.054Z,38.48
2023-04-22T07:11:23.568Z,40.41
2023-04-22T07:14:08.436Z,48.58
2023-04-22T07:16:34.936Z,59.81
2023-04-22T07:19:01.536Z,63.84
2023-04-22T07:21:27.966Z,56.41
2023-04-22T07:23:54.732Z,68.58
2023-04-22T07:26:21.163Z,71.40
2023-04-22T07:28:47.852Z,69.39
2023-04-22T07:31:14.324Z,74.19
2023-04-22T07:33:40.809Z,73.34
2023-04-22T07:36:07.870Z,74.22
2023-04-22T07:38:34.564Z,51.00
2023-04-22T07:41:01.034Z,75.36
2023-04-22T07:43:27.415Z,90.18
2023-04-22T07:45:53.911Z,90.60
2023-04-22T07:48:20.583Z,90.61
2023-04-22T07:50:46.979Z,89.26
2023-04-22T07:53:15.347Z,89.75
2023-04-22T07:55:41.777Z,88.12
2023-04-22T07:58:08.188Z,81.21
2023-04-22T08:00:35.486Z,83.67
2023-04-22T08:03:03.230Z,79.60
2023-04-22T08:05:30.026Z,77.52
2023-04-22T08:07:56.642Z,77.94
2023-04-22T08:10:23.372Z,77.49
2023-04-22T08:12:49.876Z,73.79
2023-04-22T08:15:16.377Z,76.88
2023-04-22T08:17:43.169Z,73.35
2023-04-22T08:20:10.252Z,69.35
2023-04-22T08:22:36.777Z,66.06
2023-04-22T08:25:03.457Z,66.65
2023-04-22T08:27:29.873Z,65.54
2023-04-22T08:29:56.286Z,62.61
2023-04-22T08:32:26.184Z,65.99
2023-04-22T08:34:54.178Z,69.28
2023-04-22T08:37:24.966Z,71.95
2023-04-22T08:39:52.074Z,71.86
2023-04-22T08:42:20.138Z,73.91
2023-04-22T08:44:46.968Z,71.43
2023-04-22T08:47:15.179Z,70.89
2023-04-22T08:49:42.684Z,71.79
2023-04-22T08:52:09.537Z,71.68
2023-04-22T08:54:37.431Z,70.30
2023-04-22T08:57:05.205Z,70.84
2023-04-22T08:59:31.859Z,71.41
2023-04-22T09:01:58.934Z,73.58
2023-04-22T09:04:25.684Z,74.35
2023-04-22T09:06:52.239Z,75.14
2023-04-22T09:09:19.961Z,73.11
2023-04-22T09:11:46.406Z,71.39
2023-04-22T09:14:12.870Z,70.57
2023-04-22T09:16:47.236Z,68.92
2023-04-22T09:19:16.484Z,68.63
2023-04-22T09:21:42.930Z,68.58
2023-04-22T09:24:11.809Z,69.36
2023-04-22T09:26:42.619Z,71.03
2023-04-22T09:29:14.428Z,70.86
2023-04-22T09:31:41.000Z,69.73
2023-04-22T09:34:08.118Z,69.71
2023-04-22T09:36:35.677Z,70.48
2023-04-22T09:39:04.797Z,71.07
2023-04-22T09:41:36.649Z,69.93
2023-04-22T09:44:04.407Z,69.71
2023-04-22T09:46:33.598Z,70.15
2023-04-22T09:49:00.242Z,69.18
2023-04-22T09:51:28.779Z,70.30
2023-04-22T09:53:59.453Z,70.61
2023-04-22T09:56:49.198Z,69.84
2023-04-22T09:59:23.408Z,69.20
2023-04-22T10:01:51.924Z,69.53
2023-04-22T10:04:21.514Z,70.11
2023-04-22T10:06:49.175Z,71.68
2023-04-22T10:09:21.237Z,71.23
2023-04-22T10:11:50.005Z,70.42
2023-04-22T10:14:16.548Z,69.74
2023-04-22T10:16:46.276Z,69.03
2023-04-22T10:19:17.187Z,69.33
2023-04-22T10:21:45.772Z,69.37
2023-04-22T10:24:19.731Z,66.55
2023-04-22T10:26:54.897Z,67.41
2023-04-22T10:29:25.074Z,66.63
2023-04-22T10:32:24.023Z,65.29
2023-04-22T10:35:06.185Z,65.70
2023-04-22T10:37:33.784Z,65.24
2023-04-22T10:40:08.632Z,67.10
2023-04-22T10:42:35.474Z,66.57
2023-04-22T10:45:03.986Z,67.62
2023-04-22T10:47:32.847Z,69.00
2023-04-22T10:50:24.074Z,69.81
2023-04-22T10:52:54.834Z,68.95
2023-04-22T10:55:21.794Z,68.50
2023-04-22T10:57:50.434Z,68.87
2023-04-22T11:03:14.281Z,65.11
2023-04-22T11:05:41.793Z,66.86
2023-04-22T11:08:12.356Z,66.17
2023-04-22T11:10:47.128Z,65.88
2023-04-22T11:13:16.209Z,67.18
2023-04-22T11:15:45.349Z,67.31
2023-04-22T11:18:17.050Z,68.52
2023-04-22T11:20:43.845Z,68.55
2023-04-22T11:23:10.481Z,69.95
2023-04-22T11:25:36.898Z,68.74
2023-04-22T11:28:03.783Z,68.21
2023-04-22T11:30:31.489Z,67.90
2023-04-22T11:33:00.605Z,67.32
2023-04-22T11:35:30.697Z,66.21
2023-04-22T11:37:58.682Z,67.38
2023-04-22T11:40:32.691Z,67.78
2023-04-22T11:43:03.081Z,68.10
2023-04-22T11:45:32.041Z,68.50
2023-04-22T11:47:58.921Z,69.50
2023-04-22T11:50:27.338Z,69.58
2023-04-22T11:52:56.408Z,72.01
2023-04-22T11:55:25.844Z,74.85
2023-04-22T11:57:54.522Z,77.46
2023-04-22T12:00:22.232Z,79.58
2023-04-22T12:02:59.180Z,81.80
2023-04-22T12:05:37.148Z,83.90
2023-04-22T12:08:07.256Z,85.31
2023-04-22T12:10:33.642Z,86.05
2023-04-22T12:13:01.772Z,87.64
2023-04-22T12:15:37.819Z,88.53
2023-04-22T12:18:04.547Z,88.89
2023-04-22T12:20:36.301Z,89.11
2023-04-22T12:23:05.996Z,89.15
2023-04-22T12:25:35.423Z,89.30
2023-04-22T12:28:01.970Z,89.21
2023-04-22T12:30:28.433Z,89.04
2023-04-22T12:32:54.821Z,89.04
2023-04-22T12:35:21.747Z,88.91
2023-04-22T12:37:49.433Z,89.00
2023-04-22T12:40:16.910Z,89.05
2023-04-22T12:42:44.373Z,88.99
2023-04-22T12:45:11.163Z,88.85
2023-04-22T12:47:37.851Z,88.71
2023-04-22T12:50:06.493Z,88.27
2023-04-22T12:52:34.681Z,87.23
2023-04-22T12:55:01.074Z,87.10
2023-04-22T12:57:27.641Z,86.75
2023-04-22T12:59:54.567Z,86.53
2023-04-22T13:02:21.119Z,85.94
2023-04-22T13:04:47.542Z,86.19
2023-04-22T13:07:13.940Z,86.32
2023-04-22T13:09:41.772Z,85.31
2023-04-22T13:12:08.820Z,85.33
2023-04-22T13:14:35.270Z,85.35
2023-04-22T13:17:01.705Z,84.77
2023-04-22T13:19:29.523Z,84.52
2023-04-22T13:21:55.990Z,82.78
2023-04-22T13:24:22.384Z,81.08
2023-04-22T13:26:48.817Z,78.86
2023-04-22T13:29:15.401Z,77.38
2023-04-22T13:31:43.649Z,74.96
2023-04-22T13:34:11.504Z,72.89
2023-04-22T13:36:38.154Z,71.87
2023-04-22T13:39:04.729Z,70.41
2023-04-22T13:41:31.127Z,70.15
2023-04-22T13:43:59.561Z,69.95
2023-04-22T13:46:27.016Z,68.80
2023-04-22T13:48:54.467Z,68.58
2023-04-22T13:51:20.873Z,67.00
2023-04-22T13:53:47.306Z,65.34
2023-04-22T13:56:13.804Z,64.08
2023-04-22T13:58:40.997Z,65.90
2023-04-22T14:01:08.086Z,68.87
2023-04-22T14:03:35.743Z,71.03
2023-04-22T14:06:04.009Z,70.83
2023-04-22T14:08:30.647Z,71.55
2023-04-22T14:10:59.194Z,71.57
2023-04-22T14:13:28.356Z,70.08
2023-04-22T14:15:54.966Z,70.56
2023-04-22T14:18:24.151Z,70.28
2023-04-22T14:20:53.586Z,72.17
2023-04-22T14:23:20.158Z,72.46
2023-04-22T14:25:47.842Z,72.22
2023-04-22T14:28:17.112Z,70.94
2023-04-22T14:30:43.825Z,71.22
2023-04-22T14:33:10.559Z,72.28
2023-04-22T14:35:37.911Z,73.61
2023-04-22T14:38:06.168Z,73.58
2023-04-22T14:40:32.651Z,72.09
2023-04-22T14:43:01.983Z,72.36
2023-04-22T14:45:29.808Z,72.92
2023-04-22T14:47:57.336Z,74.89
2023-04-22T14:50:23.987Z,76.50
2023-04-22T14:52:50.612Z,76.90
2023-04-22T14:55:23.264Z,76.21
2023-04-22T14:57:53.111Z,75.75
2023-04-22T15:00:19.775Z,76.75
2023-04-22T15:02:46.434Z,77.73
2023-04-22T15:05:13.017Z,76.73
2023-04-22T15:07:42.426Z,77.45
2023-04-22T15:10:09.191Z,77.11
2023-04-22T15:12:35.730Z,76.38
2023-04-22T15:15:02.175Z,77.04
2023-04-22T15:17:30.710Z,76.88
2023-04-22T15:19:57.586Z,75.56
2023-04-22T15:22:25.172Z,75.27
2023-04-22T15:24:51.922Z,74.01
2023-04-22T15:27:18.758Z,72.11
2023-04-22T15:29:46.399Z,69.65
2023-04-22T15:32:13.070Z,67.85
2023-04-22T15:34:39.493Z,65.69
2023-04-22T15:37:05.914Z,65.14
2023-04-22T15:39:32.408Z,62.24
2023-04-22T15:41:59.035Z,62.51
2023-04-22T15:44:25.504Z,61.09
2023-04-22T15:46:52.799Z,58.96
2023-04-22T15:49:19.772Z,58.81
2023-04-22T15:51:46.224Z,60.06
2023-04-22T15:54:12.617Z,57.89
2023-04-22T15:56:39.089Z,55.73
2023-04-22T15:59:05.491Z,53.45
2023-04-22T16:01:32.042Z,52.77
2023-04-22T16:03:58.801Z,51.30
2023-04-22T16:06:25.429Z,48.46
2023-04-22T16:08:51.914Z,47.55
2023-04-22T16:11:18.376Z,46.44
2023-04-22T16:13:44.892Z,44.75
2023-04-22T16:16:11.518Z,42.78
2023-04-22T16:18:38.146Z,42.91
2023-04-22T16:21:05.965Z,48.21
2023-04-22T16:23:33.425Z,60.21
2023-04-22T16:25:59.959Z,64.08
2023-04-22T16:28:26.464Z,64.17
2023-04-22T16:30:52.974Z,68.34
2023-04-22T16:33:19.403Z,66.42
2023-04-22T16:35:45.850Z,63.11
2023-04-22T16:38:12.239Z,59.01
2023-04-22T16:40:39.654Z,58.64
2023-04-22T16:43:07.201Z,57.45
2023-04-22T16:45:33.639Z,52.41
2023-04-22T16:48:00.117Z,48.31
2023-04-22T16:50:26.589Z,45.51
2023-04-22T16:52:53.549Z,43.92
2023-04-22T16:55:20.164Z,42.52
2023-04-22T16:57:50.677Z,43.61
2023-04-22T17:00:18.582Z,43.22
2023-04-22T17:02:45.585Z,43.24
2023-04-22T17:05:12.108Z,43.76
2023-04-22T17:07:38.534Z,44.13
2023-04-22T17:10:05.663Z,45.88
2023-04-22T17:12:32.500Z,44.05
2023-04-22T17:14:59.009Z,46.39
2023-04-22T17:17:25.625Z,46.37
2023-04-22T17:19:52.129Z,46.96
2023-04-22T17:22:18.776Z,46.81
2023-04-22T17:24:45.521Z,50.51
2023-04-22T17:27:15.015Z,50.55
2023-04-22T17:29:41.772Z,50.61
2023-04-22T17:32:08.458Z,51.05
2023-04-22T17:34:34.931Z,52.80
2023-04-22T17:37:01.422Z,51.71
2023-04-22T17:39:27.813Z,52.03
2023-04-22T17:41:54.609Z,54.23
2023-04-22T17:44:22.314Z,54.34
2023-04-22T17:46:48.761Z,54.30
2023-04-22T17:49:15.152Z,51.06
2023-04-22T17:51:41.649Z,53.54
2023-04-22T17:54:08.075Z,56.63
2023-04-22T17:56:35.249Z,58.97
2023-04-22T17:59:01.649Z,59.38
2023-04-22T18:01:29.549Z,60.40
2023-04-22T18:03:56.747Z,59.67
2023-04-22T18:06:23.279Z,58.51
2023-04-22T18:08:49.717Z,58.54
2023-04-22T18:11:16.221Z,57.66
2023-04-22T18:13:42.613Z,56.93
2023-04-22T18:16:09.040Z,55.07
2023-04-22T18:18:35.805Z,53.95
2023-04-22T18:21:02.268Z,54.15
2023-04-22T18:23:28.731Z,53.77
2023-04-22T18:25:55.706Z,54.17
2023-04-22T18:28:22.087Z,52.65
2023-04-22T18:30:48.600Z,52.08
2023-04-22T18:33:15.025Z,51.35
2023-04-22T18:35:42.028Z,50.94
2023-04-22T18:38:08.499Z,50.66
2023-04-22T18:40:34.954Z,49.97
2023-04-22T18:43:01.450Z,51.03
2023-04-22T18:45:27.918Z,49.86
2023-04-22T18:47:54.632Z,49.74
2023-04-22T18:50:22.189Z,48.83
2023-04-22T18:52:48.648Z,48.09
2023-04-22T18:55:15.143Z,47.89
2023-04-22T18:57:41.627Z,48.24
2023-04-22T19:00:08.682Z,48.08
2023-04-22T19:02:37.958Z,48.82
2023-04-22T19:05:06.756Z,48.35
2023-04-22T19:07:33.248Z,48.42
2023-04-22T19:09:59.644Z,48.74
2023-04-22T19:12:26.292Z,49.16
2023-04-22T19:14:52.678Z,49.05
2023-04-22T19:17:19.128Z,48.75
2023-04-22T19:19:46.391Z,47.70
2023-04-22T19:22:12.801Z,46.81
2023-04-22T19:24:39.777Z,46.75
2023-04-22T19:27:12.031Z,45.57
2023-04-22T19:29:42.865Z,44.29
2023-04-22T19:32:10.969Z,44.06
2023-04-22T19:34:38.652Z,42.77
2023-04-22T19:37:05.134Z,41.45
2023-04-22T19:39:31.616Z,39.28
2023-04-22T19:42:03.220Z,38.28
2023-04-22T19:44:30.353Z,37.31
2023-04-22T19:46:56.969Z,37.27
2023-04-22T19:49:23.732Z,37.32
2023-04-22T19:51:52.115Z,36.57
2023-04-22T19:54:21.384Z,35.08
2023-04-22T19:56:48.506Z,29.60
2023-04-22T19:59:15.967Z,26.99
2023-04-22T20:01:42.683Z,24.78
2023-04-22T20:04:09.522Z,22.41
2023-04-22T20:06:36.555Z,20.95
2023-04-22T20:09:05.490Z,18.86
2023-04-22T20:11:32.827Z,15.41
2023-04-22T20:13:59.963Z,14.00
2023-04-22T20:16:26.984Z,11.63
2023-04-22T20:18:54.373Z,9.07
2023-04-22T20:21:21.068Z,6.16
2023-04-22T20:23:49.663Z,4.15
2023-04-22T20:26:19.742Z,1.80
2023-04-22T20:28:51.808Z,0.00
2023-04-22T20:31:20.264Z,0.00
2023-04-22T20:33:46.930Z,0.00
2023-04-22T20:36:15.198Z,0.00
2023-04-22T20:38:43.021Z,0.00
2023-04-22T20:41:10.117Z,0.00
2023-04-22T20:43:36.652Z,0.00
2023-04-22T20:46:03.312Z,0.00
2023-04-22T20:48:29.817Z,0.00
2023-04-22T20:50:56.288Z,0.00
2023-04-22T20:53:23.662Z,0.00
2023-04-22T20:55:50.838Z,0.00
2023-04-22T20:58:17.210Z,0.00
2023-04-22T21:00:43.944Z,0.00
2023-04-22T21:03:13.216Z,0.00
2023-04-22T21:05:42.868Z,0.00
2023-04-22T21:08:23.270Z,0.00
2023-04-22T21:10:51.613Z,0.00
2023-04-22T21:13:18.849Z,0.00
2023-04-22T21:15:58.781Z,0.00
2023-04-22T21:18:26.385Z,0.00
2023-04-22T21:20:53.321Z,0.00
2023-04-22T21:23:22.801Z,0.00
2023-04-22T21:25:49.907Z,0.00
2023-04-22T21:28:17.506Z,0.00
2023-04-22T21:30:44.463Z,0.00
2023-04-22T21:33:10.961Z,0.00
2023-04-22T21:35:39.207Z,0.00
2023-04-22T21:38:06.324Z,0.00
2023-04-22T21:40:33.050Z,0.00
2023-04-22T21:43:02.168Z,0.00
2023-04-22T21:45:28.572Z,0.00
2023-04-22T21:47:55.027Z,0.00
2023-04-22T21:50:22.909Z,0.00
2023-04-22T21:52:49.639Z,0.00
2023-04-22T21:55:16.095Z,0.00
2023-04-22T21:57:42.573Z,0.00
2023-04-22T22:00:15.081Z,0.00
2023-04-22T22:02:43.080Z,0.00
2023-04-22T22:05:10.831Z,0.00
2023-04-22T22:07:41.286Z,0.00
2023-04-22T22:10:08.826Z,0.00
2023-04-22T22:12:35.866Z,0.00
2023-04-22T22:15:02.883Z,0.00
2023-04-22T22:17:29.948Z,0.00
2023-04-22T22:19:57.232Z,0.00
2023-04-22T22:22:23.778Z,0.00
2023-04-22T22:24:52.547Z,0.00
2023-04-22T22:27:19.302Z,0.00
2023-04-22T22:29:46.418Z,0.00
2023-04-22T22:32:13.029Z,0.00
2023-04-22T22:34:39.812Z,0.00
2023-04-22T22:37:06.486Z,0.00
2023-04-22T22:39:33.026Z,0.00
2023-04-22T22:41:59.708Z,0.00
2023-04-22T22:44:26.095Z,0.00
2023-04-22T22:46:52.649Z,0.00
2023-04-22T22:49:19.105Z,0.00
2023-04-22T22:51:45.572Z,0.00
2023-04-22T22:54:12.021Z,0.00
2023-04-22T22:56:38.492Z,0.00
2023-04-22T22:59:05.044Z,0.00
2023-04-22T23:01:31.817Z,0.00
2023-04-22T23:03:58.396Z,0.00
2023-04-22T23:06:24.977Z,0.00
2023-04-22T23:08:51.649Z,0.00
2023-04-22T23:11:18.122Z,0.00
2023-04-22T23:13:44.579Z,0.00
2023-04-22T23:16:11.209Z,0.00
2023-04-22T23:18:37.955Z,0.00
2023-04-22T23:21:06.522Z,0.00
2023-04-22T23:23:34.693Z,0.00
2023-04-22T23:26:01.445Z,0.00
2023-04-22T23:28:28.224Z,0.00
2023-04-22T23:30:55.985Z,0.00
2023-04-22T23:33:24.358Z,0.00
2023-04-22T23:35:56.446Z,0.00
2023-04-22T23:38:23.351Z,0.00
2023-04-22T23:40:49.789Z,0.00
2023-04-22T23:43:16.226Z,0.00
2023-04-22T23:45:43.018Z,0.00
2023-04-22T23:48:09.627Z,0.00
2023-04-22T23:50:36.098Z,0.00
2023-04-22T23:53:02.530Z,0.00
2023-04-22T23:55:29.227Z,0.00
2023-04-22T23:57:56.180Z,0.00
